Time;durP1;ratioP1;P1;durP2;ratioP2;P2;SDS_P1;SDS_P2;PMS_P1;PMS_P2;Temp;Humidity;BMP_temperature;BMP_pressure;BME280_temperature;BME280_humidity;BME280_pressure;Samples;Min_cycle;Max_cycle;Signal;HPM_P1;HPM_P2
2021/07/11 10:50:33;;;;;;;;;;;;;;;;;;5236246;22;19983;-52
2021/07/11 10:52:59;;;;;;;;;;;;;;;;;;5031927;28;19909;-60
2021/07/11 10:55:25;;;;;;;;;;;;;;;;;;5034196;28;19905;-61
2021/07/11 10:57:51;;;;;;;;;;;;;;;;;;5033635;28;19905;-60
2021/07/11 11:00:20;;;;;;;;;;;;;;;;;;5032366;28;19984;-58
2021/07/11 11:02:46;;;;;;;;;;;;;;;;;;5033634;28;20363;-60
2021/07/11 11:05:13;;;;;;;;;;;;;;;;;;5033450;28;20349;-61
2021/07/11 11:07:41;;;;;;;;;;;;;;;;;;5034286;28;19916;-61
2021/07/11 11:10:07;;;;;;;;;;;;;;;;;;5031971;28;19925;-61
2021/07/11 11:12:33;;;;;;;;;;;;;;;;;;5033717;28;20341;-61
2021/07/11 11:15:01;;;;;;;;;;;;;;;;;;5033412;28;20248;-61
2021/07/11 11:17:27;;;;;;;;;;;;;;;;;;5033917;28;20336;-61
2021/07/11 11:19:55;;;;;;;;;;;;;;;;;;5033658;28;19920;-60
2021/07/11 11:22:24;;;;;;;;;;;;;;;;;;5033732;28;19916;-61
2021/07/11 11:24:50;;;;;;;;;;;;;;;;;;5033800;28;19911;-61
2021/07/11 11:27:16;;;;;;;;;;;;;;;;;;5033761;28;19909;-60
2021/07/11 11:29:42;;;;;;;;;;;;;;;;;;5032990;28;20333;-60
2021/07/11 11:32:08;;;;;;;;;;;;;;;;;;5031936;28;20012;-60
2021/07/11 11:34:36;;;;;;;;;;;;;;;;;;5031690;28;20225;-61
2021/07/11 11:37:02;;;;;;;;;;;;;;;;;;5033549;28;20010;-60
2021/07/11 11:39:30;;;;;;;;;;;;;;;;;;5033283;28;19901;-60
2021/07/11 11:41:58;;;;;;;;;;;;;;;;;;5033404;28;19974;-60
2021/07/11 11:44:24;;;;;;;;;;;;;;;;;;5032850;28;19909;-60
2021/07/11 11:46:50;;;;;;;;;;;;;;;;;;5033347;28;19909;-60
2021/07/11 11:49:16;;;;;;;;;;;;;;;;;;5031102;28;19909;-61
2021/07/11 11:51:42;;;;;;;;;;;;;;;;;;5013237;28;20361;-61
2021/07/11 11:54:11;;;;;;;;;;;;;;;;;;5002917;28;19932;-61
2021/07/11 11:56:37;;;;;;;;;;;;;;;;;;5010266;28;19905;-61
2021/07/11 11:59:03;;;;;;;;;;;;;;;;;;5013372;28;19959;-60
2021/07/11 12:01:29;;;;;;;;;;;;;;;;;;5012861;28;19909;-60
2021/07/11 12:03:57;;;;;;;;;;;;;;;;;;5013217;28;20313;-60
2021/07/11 12:06:26;;;;;;;;;;;;;;;;;;5012775;28;19905;-60
2021/07/11 12:08:52;;;;;;;;;;;;;;;;;;5013224;28;19905;-60
2021/07/11 12:11:21;;;;;;;;;;;;;;;;;;5012447;28;20020;-61
2021/07/11 12:13:47;;;;;;;;;;;;;;;;;;5012825;28;20365;-61
2021/07/11 12:16:15;;;;;;;;;;;;;;;;;;5013392;28;19906;-60
2021/07/11 12:18:41;;;;;;;;;;;;;;;;;;5012549;28;19921;-59
2021/07/11 12:21:07;;;;;;;;;;;;;;;;;;5012469;28;19906;-60
2021/07/11 12:23:33;;;;;;;;;;;;;;;;;;5013145;28;19905;-61
2021/07/11 12:26:00;;;;;;;;;;;;;;;;;;5013072;28;20007;-59
2021/07/11 12:28:26;;;;;;;;;;;;;;;;;;5009081;28;19936;-60
2021/07/11 12:30:54;;;;;;;;;;;;;;;;;;5002244;28;20015;-59
2021/07/11 12:33:20;;;;;;;;;;;;;;;;;;4994630;28;19906;-60
2021/07/11 12:35:48;;;;;;;;;;;;;;;;;;5006441;28;19912;-60
2021/07/11 12:38:14;;;;;;;;;;;;;;;;;;5011294;28;19905;-61
2021/07/11 12:40:43;;;;;;;;;;;;;;;;;;5011902;28;19970;-61
2021/07/11 12:43:09;;;;;;;;;;;;;;;;;;5012104;28;19985;-60
2021/07/11 12:45:35;;;;;;;;;;;;;;;;;;5012277;28;20391;-61
2021/07/11 12:48:01;;;;;;;;;;;;;;;;;;5012227;28;19905;-60
2021/07/11 12:50:27;;;;;;;;;;;;;;;;;;5023804;28;19979;-60
2021/07/11 12:52:53;;;;;;;;;;;;;;;;;;5031533;28;20380;-60
2021/07/11 12:55:22;;;;;;;;;;;;;;;;;;5031446;28;20391;-60
2021/07/11 12:57:48;;;;;;;;;;;;;;;;;;5031549;28;20004;-60
2021/07/11 13:00:14;;;;;;;;;;;;;;;;;;5031416;28;19931;-61
2021/07/11 13:02:40;;;;;;;;;;;;;;;;;;5031849;28;19905;-60
2021/07/11 13:05:07;;;;;;;;;;;;;;;;;;5030899;28;20346;-60
2021/07/11 13:07:33;;;;;;;;;;;;;;;;;;5031022;28;19980;-59
2021/07/11 13:10:00;;;;;;;;;;;;;;;;;;5031439;28;20039;-60
2021/07/11 13:12:28;;;;;;;;;;;;;;;;;;5031999;28;20004;-61
2021/07/11 13:14:54;;;;;;;;;;;;;;;;;;5031549;28;19912;-59
2021/07/11 13:17:20;;;;;;;;;;;;;;;;;;5031004;28;19909;-59
2021/07/11 13:19:46;;;;;;;;;;;;;;;;;;5031069;28;19905;-59
2021/07/11 13:22:12;;;;;;;;;;;;;;;;;;5031223;28;19905;-60
2021/07/11 13:24:37;;;;;;;;;;;;;;;;;;5029665;28;19905;-59
2021/07/11 13:27:06;;;;;;;;;;;;;;;;;;5031137;28;19924;-61
2021/07/11 13:29:34;;;;;;;;;;;;;;;;;;5031582;28;19905;-61
2021/07/11 13:32:00;;;;;;;;;;;;;;;;;;5031347;28;19912;-60
2021/07/11 13:34:26;;;;;;;;;;;;;;;;;;5026220;28;19925;-61
2021/07/11 13:36:54;;;;;;;;;;;;;;;;;;5031057;28;19913;-60
2021/07/11 13:39:20;;;;;;;;;;;;;;;;;;5031115;28;19911;-58
2021/07/11 13:41:46;;;;;;;;;;;;;;;;;;5031309;28;20280;-60
2021/07/11 13:44:12;;;;;;;;;;;;;;;;;;5031217;28;19997;-60
2021/07/11 13:46:38;;;;;;;;;;;;;;;;;;5030588;28;19905;-60
2021/07/11 13:49:04;;;;;;;;;;;;;;;;;;5030610;28;19913;-60
2021/07/11 13:51:30;;;;;;;;;;;;;;;;;;5030473;28;20393;-60
2021/07/11 13:53:56;;;;;;;;;;;;;;;;;;5030415;28;19977;-61
2021/07/11 13:56:21;;;;;;;;;;;;;;;;;;5030579;28;19944;-61
2021/07/11 13:58:47;;;;;;;;;;;;;;;;;;5030284;28;19905;-61
2021/07/11 14:01:14;;;;;;;;;;;;;;;;;;5027479;28;19975;-60
2021/07/11 14:03:40;;;;;;;;;;;;;;;;;;5031041;28;19905;-59
2021/07/11 14:06:05;;;;;;;;;;;;;;;;;;5030476;28;19996;-59
2021/07/11 14:08:32;;;;;;;;;;;;;;;;;;5031118;28;19915;-59
2021/07/11 14:10:58;;;;;;;;;;;;;;;;;;5025579;28;19925;-59
2021/07/11 14:13:23;;;;;;;;;;;;;;;;;;5025261;28;19909;-59
2021/07/11 14:15:52;;;;;;;;;;;;;;;;;;5021126;28;20255;-59
2021/07/11 14:18:18;;;;;;;;;;;;;;;;;;5030631;28;19940;-59
2021/07/11 14:20:44;;;;;;;;;;;;;;;;;;5028656;28;19956;-59
2021/07/11 14:23:10;;;;;;;;;;;;;;;;;;5030215;28;19955;-59
2021/07/11 14:25:36;;;;;;;;;;;;;;;;;;5025868;28;19916;-60
2021/07/11 14:28:02;;;;;;;;;;;;;;;;;;5027278;28;19956;-59
2021/07/11 14:30:28;;;;;;;;;;;;;;;;;;5028871;28;19960;-60
2021/07/11 14:32:54;;;;;;;;;;;;;;;;;;5028962;28;19941;-59
2021/07/11 14:35:20;;;;;;;;;;;;;;;;;;5026493;28;19923;-60
2021/07/11 14:37:46;;;;;;;;;;;;;;;;;;5029363;28;19913;-59
2021/07/11 14:40:12;;;;;;;;;;;;;;;;;;5027917;28;19944;-59
2021/07/11 14:42:38;;;;;;;;;;;;;;;;;;5029611;28;20225;-59
2021/07/11 14:45:04;;;;;;;;;;;;;;;;;;5029109;28;19946;-59
2021/07/11 14:47:30;;;;;;;;;;;;;;;;;;5029610;28;19909;-59
2021/07/11 14:49:56;;;;;;;;;;;;;;;;;;5029317;28;19972;-59
2021/07/11 14:52:22;;;;;;;;;;;;;;;;;;5029475;28;19913;-60
2021/07/11 14:54:48;;;;;;;;;;;;;;;;;;5029367;28;19909;-58
2021/07/11 14:57:14;;;;;;;;;;;;;;;;;;5027528;28;19915;-59
2021/07/11 14:59:40;;;;;;;;;;;;;;;;;;5029172;28;19909;-58
2021/07/11 15:02:06;;;;;;;;;;;;;;;;;;5027336;28;19988;-58
2021/07/11 15:04:32;;;;;;;;;;;;;;;;;;5032212;28;19954;-58
2021/07/11 15:06:59;;;;;;;;;;;;;;;;;;5032770;28;19917;-58
2021/07/11 15:09:25;;;;;;;;;;;;;;;;;;5032911;28;19909;-58
2021/07/11 15:11:51;;;;;;;;;;;;;;;;;;5032922;28;19925;-59
2021/07/11 15:14:16;;;;;;;;;;;;;;;;;;5032617;28;19940;-58
2021/07/11 15:16:42;;;;;;;;;;;;;;;;;;5033026;28;19956;-58
2021/07/11 15:19:09;;;;;;;;;;;;;;;;;;5031934;28;19917;-58
2021/07/11 15:21:35;;;;;;;;;;;;;;;;;;5033175;28;20005;-59
2021/07/11 15:24:01;;;;;;;;;;;;;;;;;;5032288;28;19924;-60
2021/07/11 15:26:27;;;;;;;;;;;;;;;;;;5033441;28;19909;-61
2021/07/11 15:28:53;;;;;;;;;;;;;;;;;;5032747;28;19991;-60
2021/07/11 15:31:21;;;;;;;;;;;;;;;;;;5031402;28;19956;-61
2021/07/11 15:33:47;;;;;;;;;;;;;;;;;;5032491;28;19916;-60
2021/07/11 15:36:13;;;;;;;;;;;;;;;;;;5030907;28;19909;-59
2021/07/11 15:38:41;;;;;;;;;;;;;;;;;;5032557;28;19963;-59
2021/07/11 15:41:07;;;;;;;;;;;;;;;;;;5032323;28;19909;-60
2021/07/11 15:43:33;;;;;;;;;;;;;;;;;;5032304;28;19917;-58
2021/07/11 15:45:59;;;;;;;;;;;;;;;;;;5032504;28;19909;-60
2021/07/11 15:48:25;;;;;;;;;;;;;;;;;;5029616;28;20038;-59
2021/07/11 15:50:53;;;;;;;;;;;;;;;;;;5032934;28;19952;-58
2021/07/11 15:53:19;;;;;;;;;;;;;;;;;;5031346;28;19909;-57
2021/07/11 15:55:46;;;;;;;;;;;;;;;;;;5032201;28;19926;-57
2021/07/11 15:58:11;;;;;;;;;;;;;;;;;;5032339;28;19952;-58
2021/07/11 16:00:37;;;;;;;;;;;;;;;;;;5032453;28;20006;-58
2021/07/11 16:03:03;;;;;;;;;;;;;;;;;;5032508;28;19905;-57
2021/07/11 16:05:29;;;;;;;;;;;;;;;;;;5031539;28;19964;-59
2021/07/11 16:07:56;;;;;;;;;;;;;;;;;;5032226;28;20047;-59
2021/07/11 16:10:22;;;;;;;;;;;;;;;;;;5032917;28;19913;-58
2021/07/11 16:12:48;;;;;;;;;;;;;;;;;;5032334;28;20035;-58
2021/07/11 16:15:13;;;;;;;;;;;;;;;;;;5031567;28;20357;-59
2021/07/11 16:17:39;;;;;;;;;;;;;;;;;;5032315;28;20234;-59
2021/07/11 16:20:06;;;;;;;;;;;;;;;;;;5032807;28;19957;-59
2021/07/11 16:22:32;;;;;;;;;;;;;;;;;;5032021;28;19909;-59
2021/07/11 16:25:01;;;;;;;;;;;;;;;;;;5032329;28;19916;-59
2021/07/11 16:27:27;;;;;;;;;;;;;;;;;;5031305;28;19905;-59
2021/07/11 16:29:53;;;;;;;;;;;;;;;;;;5029955;28;19909;-59
2021/07/11 16:32:19;;;;;;;;;;;;;;;;;;5032264;28;19951;-58
2021/07/11 16:34:45;;;;;;;;;;;;;;;;;;5025170;28;19913;-59
2021/07/11 16:37:11;;;;;;;;;;;;;;;;;;5030872;28;19905;-63
2021/07/11 16:39:37;;;;;;;;;;;;;;;;;;5027559;28;19948;-59
2021/07/11 16:42:03;;;;;;;;;;;;;;;;;;5032383;28;19913;-59
2021/07/11 16:44:29;;;;;;;;;;;;;;;;;;5027680;28;19909;-59
2021/07/11 16:46:55;;;;;;;;;;;;;;;;;;5031995;28;20006;-59
2021/07/11 16:49:21;;;;;;;;;;;;;;;;;;5029318;28;19940;-59
2021/07/11 16:51:47;;;;;;;;;;;;;;;;;;5012181;28;21341;-58
2021/07/11 16:54:13;;;;;;;;;;;;;;;;;;5011908;28;19925;-58
2021/07/11 16:56:39;;;;;;;;;;;;;;;;;;5001523;28;19911;-58
2021/07/11 16:59:05;;;;;;;;;;;;;;;;;;5012137;28;20349;-59
2021/07/11 17:01:31;;;;;;;;;;;;;;;;;;5011970;28;19910;-58
2021/07/11 17:03:57;;;;;;;;;;;;;;;;;;5011805;28;20000;-59
2021/07/11 17:06:25;;;;;;;;;;;;;;;;;;5011953;28;20005;-58
2021/07/11 17:08:51;;;;;;;;;;;;;;;;;;5011864;28;19912;-57
2021/07/11 17:11:17;;;;;;;;;;;;;;;;;;5011441;28;19917;-59
2021/07/11 17:13:43;;;;;;;;;;;;;;;;;;5011914;28;19928;-58
2021/07/11 17:16:09;;;;;;;;;;;;;;;;;;5011838;28;20000;-59
2021/07/11 17:18:35;;;;;;;;;;;;;;;;;;5011487;28;19932;-59
2021/07/11 17:21:02;;;;;;;;;;;;;;;;;;5012249;28;19906;-59
2021/07/11 17:23:28;;;;;;;;;;;;;;;;;;5011329;28;19915;-59
2021/07/11 17:25:54;;;;;;;;;;;;;;;;;;5011164;28;19905;-58
2021/07/11 17:28:20;;;;;;;;;;;;;;;;;;5011598;28;19913;-58
2021/07/11 17:30:49;;;;;;;;;;;;;;;;;;5010462;28;19953;-59
2021/07/11 17:33:15;;;;;;;;;;;;;;;;;;5010179;28;20369;-60
2021/07/11 17:35:41;;;;;;;;;;;;;;;;;;4998377;28;19909;-58
2021/07/11 17:38:07;;;;;;;;;;;;;;;;;;5010937;28;19984;-60
2021/07/11 17:40:33;;;;;;;;;;;;;;;;;;5011572;28;20302;-60
2021/07/11 17:43:00;;;;;;;;;;;;;;;;;;5010916;28;19917;-61
2021/07/11 17:45:26;;;;;;;;;;;;;;;;;;5001940;28;19910;-61
2021/07/11 17:47:52;;;;;;;;;;;;;;;;;;5008990;28;20333;-58
2021/07/11 17:50:18;;;;;;;;;;;;;;;;;;5021707;28;19925;-60
2021/07/11 17:52:44;;;;;;;;;;;;;;;;;;5026859;28;20028;-62
2021/07/11 17:55:10;;;;;;;;;;;;;;;;;;5031258;28;19920;-58
2021/07/11 17:57:36;;;;;;;;;;;;;;;;;;5030806;28;20354;-61
2021/07/11 18:00:02;;;;;;;;;;;;;;;;;;5030197;28;20238;-60
2021/07/11 18:02:28;;;;;;;;;;;;;;;;;;5028627;28;19909;-60
2021/07/11 18:04:54;;;;;;;;;;;;;;;;;;5030759;28;20020;-60
2021/07/11 18:07:20;;;;;;;;;;;;;;;;;;5030689;28;20021;-59
2021/07/11 18:09:47;;;;;;;;;;;;;;;;;;5030157;28;19909;-60
2021/07/11 18:12:13;;;;;;;;;;;;;;;;;;5029825;28;19917;-58
2021/07/11 18:14:39;;;;;;;;;;;;;;;;;;5029415;28;20392;-61
2021/07/11 18:17:05;;;;;;;;;;;;;;;;;;5030445;28;19932;-60
2021/07/11 18:19:31;;;;;;;;;;;;;;;;;;5030173;28;20065;-61
2021/07/11 18:21:59;;;;;;;;;;;;;;;;;;5030563;28;19916;-61
2021/07/11 18:24:25;;;;;;;;;;;;;;;;;;5029195;28;19909;-61
2021/07/11 18:26:51;;;;;;;;;;;;;;;;;;5030264;28;19979;-58
2021/07/11 18:29:20;;;;;;;;;;;;;;;;;;5030426;28;19905;-58
2021/07/11 18:31:46;;;;;;;;;;;;;;;;;;5028455;28;19944;-61
2021/07/11 18:34:14;;;;;;;;;;;;;;;;;;5026760;28;19925;-62
2021/07/11 18:36:40;;;;;;;;;;;;;;;;;;5030315;28;20272;-59
2021/07/11 18:39:06;;;;;;;;;;;;;;;;;;5032662;28;19905;-59
2021/07/11 18:41:32;;;;;;;;;;;;;;;;;;5034110;28;20328;-60
2021/07/11 18:43:58;;;;;;;;;;;;;;;;;;5032470;28;19909;-60
2021/07/11 18:46:24;;;;;;;;;;;;;;;;;;5034402;28;19905;-61
2021/07/11 18:48:50;;;;;;;;;;;;;;;;;;5034278;28;19905;-59
2021/07/11 18:51:16;;;;;;;;;;;;;;;;;;5052259;28;19916;-60
2021/07/11 18:53:42;;;;;;;;;;;;;;;;;;5031684;28;19916;-61
2021/07/11 18:56:08;;;;;;;;;;;;;;;;;;5032431;28;20292;-62
2021/07/11 18:58:36;;;;;;;;;;;;;;;;;;5015039;28;19909;-61
2021/07/11 19:01:02;;;;;;;;;;;;;;;;;;5022407;28;20301;-61
2021/07/11 19:03:28;;;;;;;;;;;;;;;;;;5015344;28;20015;-62
2021/07/11 19:05:54;;;;;;;;;;;;;;;;;;5032605;28;19915;-62
2021/07/11 19:08:20;;;;;;;;;;;;;;;;;;5015811;28;20434;-62
2021/07/11 19:10:46;;;;;;;;;;;;;;;;;;5032725;28;20007;-61
2021/07/11 19:13:13;;;;;;;;;;;;;;;;;;5015877;28;20313;-62
2021/07/11 19:15:39;;;;;;;;;;;;;;;;;;5032812;28;19909;-62
2021/07/11 19:18:05;;;;;;;;;;;;;;;;;;5015045;28;20183;-61
2021/07/11 19:20:31;;;;;;;;;;;;;;;;;;5033596;28;19915;-61
2021/07/11 19:22:59;;;;;;;;;;;;;;;;;;5033238;28;19920;-61
2021/07/11 19:25:27;;;;;;;;;;;;;;;;;;5015237;28;19912;-62
2021/07/11 19:27:53;;;;;;;;;;;;;;;;;;5014765;28;19909;-61
2021/07/11 19:30:19;;;;;;;;;;;;;;;;;;5032514;28;19956;-61
2021/07/11 19:32:46;;;;;;;;;;;;;;;;;;5033065;28;20290;-61
2021/07/11 19:35:16;;;;;;;;;;;;;;;;;;5014026;28;19909;-61
2021/07/11 19:37:42;;;;;;;;;;;;;;;;;;5013987;28;19956;-61
2021/07/11 19:40:08;;;;;;;;;;;;;;;;;;5014017;28;19967;-61
2021/07/11 19:42:34;;;;;;;;;;;;;;;;;;5032713;28;20327;-61
2021/07/11 19:45:01;;;;;;;;;;;;;;;;;;5037544;28;19940;-60
2021/07/11 19:47:27;;;;;;;;;;;;;;;;;;5039661;28;19916;-59
2021/07/11 19:49:53;;;;;;;;;;;;;;;;;;5018083;28;19922;-59
2021/07/11 19:52:19;;;;;;;;;;;;;;;;;;5029564;28;19909;-60
2021/07/11 19:54:45;;;;;;;;;;;;;;;;;;5032458;28;19916;-60
2021/07/11 19:57:11;;;;;;;;;;;;;;;;;;5032348;28;20385;-60
2021/07/11 19:59:40;;;;;;;;;;;;;;;;;;5031439;28;20015;-60
2021/07/11 20:02:06;;;;;;;;;;;;;;;;;;5022513;28;19909;-61
2021/07/11 20:04:32;;;;;;;;;;;;;;;;;;5032101;28;19992;-60
2021/07/11 20:06:58;;;;;;;;;;;;;;;;;;5032308;28;19932;-61
2021/07/11 20:09:30;;;;;;;;;;;;;;;;;;5030828;28;19940;-60
2021/07/11 20:11:56;;;;;;;;;;;;;;;;;;5017313;28;20274;-62
2021/07/11 20:14:22;;;;;;;;;;;;;;;;;;5030412;28;20264;-61
2021/07/11 20:16:47;;;;;;;;;;;;;;;;;;5022283;28;19944;-60
2021/07/11 20:19:13;;;;;;;;;;;;;;;;;;5030183;28;20342;-61
2021/07/11 20:21:40;;;;;;;;;;;;;;;;;;5030874;28;19988;-61
2021/07/11 20:24:06;;;;;;;;;;;;;;;;;;5030276;28;20301;-61
2021/07/11 20:26:34;;;;;;;;;;;;;;;;;;5031553;28;19921;-60
2021/07/11 20:29:00;;;;;;;;;;;;;;;;;;5029649;28;19909;-61
2021/07/11 20:31:31;;;;;;;;;;;;;;;;;;5031032;28;20293;-61
2021/07/11 20:33:57;;;;;;;;;;;;;;;;;;5026939;28;19932;-63
2021/07/11 20:36:25;;;;;;;;;;;;;;;;;;5030928;28;19909;-61
2021/07/11 20:38:51;;;;;;;;;;;;;;;;;;5030391;28;20337;-61
2021/07/11 20:41:17;;;;;;;;;;;;;;;;;;5031653;28;19999;-61
2021/07/11 20:43:43;;;;;;;;;;;;;;;;;;5030058;28;20330;-60
2021/07/11 20:46:09;;;;;;;;;;;;;;;;;;5030786;28;19967;-60
2021/07/11 20:48:35;;;;;;;;;;;;;;;;;;5031059;28;19913;-62
2021/07/11 20:51:01;;;;;;;;;;;;;;;;;;5014461;28;19960;-62
2021/07/11 20:53:27;;;;;;;;;;;;;;;;;;4986519;28;19951;-60
2021/07/11 20:56:04;;;;;;;;;;;;;;;;;;5010923;28;20326;-61
2021/07/11 20:58:33;;;;;;;;;;;;;;;;;;4993010;28;19910;-61
2021/07/11 21:00:59;;;;;;;;;;;;;;;;;;5009280;28;19913;-60
2021/07/11 21:03:25;;;;;;;;;;;;;;;;;;5010632;28;19922;-62
2021/07/11 21:05:51;;;;;;;;;;;;;;;;;;5009972;28;19910;-63
2021/07/11 21:08:16;;;;;;;;;;;;;;;;;;5010603;28;19940;-62
2021/07/11 21:10:42;;;;;;;;;;;;;;;;;;5010583;28;20323;-61
2021/07/11 21:13:08;;;;;;;;;;;;;;;;;;5010684;28;19944;-60
2021/07/11 21:15:34;;;;;;;;;;;;;;;;;;5010126;28;19913;-61
2021/07/11 21:18:00;;;;;;;;;;;;;;;;;;5009166;28;19935;-60
2021/07/11 21:20:26;;;;;;;;;;;;;;;;;;5010970;28;19928;-60
2021/07/11 21:22:52;;;;;;;;;;;;;;;;;;5010114;28;19906;-61
2021/07/11 21:25:18;;;;;;;;;;;;;;;;;;5011120;28;19983;-61
2021/07/11 21:27:44;;;;;;;;;;;;;;;;;;5010724;28;20266;-62
2021/07/11 21:30:10;;;;;;;;;;;;;;;;;;5009793;28;20393;-64
2021/07/11 21:32:36;;;;;;;;;;;;;;;;;;5009447;28;19948;-62
2021/07/11 21:35:02;;;;;;;;;;;;;;;;;;5009358;28;19960;-61
2021/07/11 21:37:28;;;;;;;;;;;;;;;;;;5010422;28;19909;-61
2021/07/11 21:39:54;;;;;;;;;;;;;;;;;;5009932;28;19936;-61
2021/07/11 21:42:20;;;;;;;;;;;;;;;;;;5009038;28;19948;-61
2021/07/11 21:44:46;;;;;;;;;;;;;;;;;;5010283;28;19909;-61
2021/07/11 21:47:12;;;;;;;;;;;;;;;;;;5010446;28;19912;-61
2021/07/11 21:49:38;;;;;;;;;;;;;;;;;;5014894;28;19929;-63
2021/07/11 21:52:04;;;;;;;;;;;;;;;;;;5028701;28;20007;-61
2021/07/11 21:54:30;;;;;;;;;;;;;;;;;;5029390;28;19920;-61
2021/07/11 21:56:56;;;;;;;;;;;;;;;;;;5028753;28;19913;-62
2021/07/11 21:59:22;;;;;;;;;;;;;;;;;;5029182;28;19948;-62
2021/07/11 22:01:48;;;;;;;;;;;;;;;;;;5030309;28;19992;-62
